This is the latest recevied weather packets stored in our database for station/object PY2VE-13. If no packets are shown the sender has not sent any weather packets the latest 10 day(s).
| Time | Temp. | Humidity | Pressure | Rain* | Wind** | Luminosity | Snow |
|---|---|---|---|---|---|---|---|
| 1777915131 | 30.56° C | 39% | 1020.8 hPa | - | - | - | - |
| 1777914231 | 30° C | 41% | 1021.2 hPa | - | - | - | - |
| 1777913331 | 28.89° C | 42% | 1021.7 hPa | - | - | - | - |
| 1777912431 | 28.33° C | 43% | 1022 hPa | - | - | - | - |
| 1777911531 | 28.33° C | 44% | 1022 hPa | - | - | - | - |
| 1777910631 | 28.89° C | 41% | 1022.1 hPa | - | - | - | - |
| 1777909731 | 28.33° C | 43% | 1022.5 hPa | - | - | - | - |
| 1777908831 | 28.33° C | 43% | 1022.7 hPa | - | - | - | - |
| 1777907931 | 27.22° C | 45% | 1023.2 hPa | - | - | - | - |
| 1777907031 | 28.33° C | 44% | 1023 hPa | - | - | - | - |
| 1777906131 | 27.78° C | 43% | 1023.1 hPa | - | - | - | - |
| 1777905231 | 28.33° C | 43% | 1023.6 hPa | - | - | - | - |
| 1777904331 | 27.22° C | 45% | 1023.9 hPa | - | - | - | - |
| 1777903431 | 27.78° C | 44% | 1024.1 hPa | - | - | - | - |
| 1777902530 | 27.78° C | 44% | 1024.5 hPa | - | - | - | - |
| 1777901631 | 26.67° C | 45% | 1024.8 hPa | - | - | - | - |
| 1777900735 | 26.11° C | 47% | 1025 hPa | - | - | - | - |
| 1777899830 | 26.11° C | 46% | 1024.9 hPa | - | - | - | - |
| 1777898930 | 25° C | 49% | 1025.2 hPa | - | - | - | - |
| 1777898030 | 24.44° C | 51% | 1025.4 hPa | - | - | - | - |
| 1777897130 | 25° C | 49% | 1025.1 hPa | - | - | - | - |
| 1777896230 | 23.89° C | 51% | 1025.3 hPa | - | - | - | - |
| 1777895330 | 24.44° C | 49% | 1025.2 hPa | - | - | - | - |
| 1777894430 | 23.89° C | 51% | 1025.3 hPa | - | - | - | - |
| 1777893530 | 23.33° C | 53% | 1025.5 hPa | - | - | - | - |
* Rain since midnight (hover to see other rain measurements)
** Current wind speed in m/s (hover to see current wind gust speed)